createdAt,value
2018-08-31T00:02:55.487Z,12.40
2018-08-31T00:05:58.665Z,12.20
2018-08-31T00:09:38.952Z,12.20
2018-08-31T00:12:43.772Z,12.10
2018-08-31T00:15:12.137Z,11.90
2018-08-31T00:17:41.693Z,11.80
2018-08-31T00:20:11.033Z,11.90
2018-08-31T00:22:39.374Z,11.80
2018-08-31T00:25:20.245Z,11.80
2018-08-31T00:28:00.279Z,11.80
2018-08-31T00:31:41.769Z,11.80
2018-08-31T00:34:23.284Z,11.80
2018-08-31T00:39:41.485Z,11.70
2018-08-31T00:42:20.689Z,11.60
2018-08-31T00:45:01.742Z,11.70
2018-08-31T00:47:30.129Z,11.60
2018-08-31T00:49:58.525Z,11.60
2018-08-31T00:52:26.842Z,11.50
2018-08-31T00:54:55.179Z,11.50
2018-08-31T00:57:23.530Z,11.50
2018-08-31T00:59:51.866Z,11.50
2018-08-31T01:02:20.184Z,11.60
2018-08-31T01:04:48.504Z,11.60
2018-08-31T01:07:16.839Z,11.70
2018-08-31T01:09:45.198Z,11.80
2018-08-31T01:12:13.530Z,11.70
2018-08-31T01:14:41.871Z,11.70
2018-08-31T01:17:10.196Z,11.70
2018-08-31T01:19:38.591Z,11.70
2018-08-31T01:22:06.965Z,11.70
2018-08-31T01:24:35.313Z,11.70
2018-08-31T01:27:03.681Z,11.60
2018-08-31T01:29:32.032Z,11.50
2018-08-31T01:32:00.378Z,11.50
2018-08-31T01:34:28.698Z,11.40
2018-08-31T01:36:57.040Z,11.50
2018-08-31T01:39:25.441Z,11.50
2018-08-31T01:41:53.806Z,11.50
2018-08-31T01:44:22.136Z,11.50
2018-08-31T01:46:50.493Z,11.40
2018-08-31T01:49:18.838Z,11.20
2018-08-31T01:51:47.192Z,11.10
2018-08-31T01:54:15.549Z,11.00
2018-08-31T01:56:43.880Z,10.90
2018-08-31T01:59:12.250Z,10.90
2018-08-31T02:01:40.637Z,10.90
2018-08-31T02:04:09.037Z,10.90
2018-08-31T02:06:37.337Z,10.90
2018-08-31T02:09:12.258Z,10.90
2018-08-31T02:11:40.665Z,11.00
2018-08-31T02:14:09.009Z,11.10
2018-08-31T02:16:37.568Z,11.10
2018-08-31T02:19:05.889Z,11.10
2018-08-31T02:21:34.286Z,11.00
2018-08-31T02:24:03.305Z,10.90
2018-08-31T02:26:31.682Z,10.80
2018-08-31T02:29:00.050Z,10.70
2018-08-31T02:31:28.397Z,10.60
2018-08-31T02:33:56.752Z,10.60
2018-08-31T02:36:25.125Z,10.60
2018-08-31T02:38:53.705Z,10.70
2018-08-31T02:41:22.166Z,10.80
2018-08-31T02:43:51.345Z,10.80
2018-08-31T02:46:20.870Z,10.80
2018-08-31T02:48:50.175Z,10.80
2018-08-31T02:51:18.545Z,10.80
2018-08-31T02:53:46.876Z,10.80
2018-08-31T02:56:15.377Z,10.90
2018-08-31T02:58:43.875Z,10.90
2018-08-31T03:01:12.216Z,10.90
2018-08-31T03:03:40.541Z,10.80
2018-08-31T03:06:08.885Z,10.70
2018-08-31T03:08:37.288Z,10.80
2018-08-31T03:11:05.681Z,10.80
2018-08-31T03:13:34.015Z,10.80
2018-08-31T03:16:02.376Z,10.70
2018-08-31T03:18:30.757Z,10.70
2018-08-31T03:20:59.080Z,10.60
2018-08-31T03:23:27.442Z,10.50
2018-08-31T03:25:55.780Z,10.50
2018-08-31T03:28:24.152Z,10.50
2018-08-31T03:30:52.488Z,10.70
2018-08-31T03:33:20.833Z,10.70
2018-08-31T03:35:49.165Z,10.70
2018-08-31T03:38:17.495Z,10.70
2018-08-31T03:40:45.809Z,10.70
2018-08-31T03:43:14.172Z,10.70
2018-08-31T03:45:42.500Z,10.60
2018-08-31T03:48:10.818Z,10.50
2018-08-31T03:50:39.122Z,10.50
2018-08-31T03:53:07.505Z,10.70
2018-08-31T03:55:35.840Z,10.80
2018-08-31T03:58:04.233Z,10.70
2018-08-31T04:00:32.617Z,10.50
2018-08-31T04:03:00.929Z,10.50
2018-08-31T04:05:29.245Z,10.40
2018-08-31T04:07:57.597Z,10.40
2018-08-31T04:10:25.909Z,10.40
2018-08-31T04:12:54.256Z,10.30
2018-08-31T04:15:22.568Z,10.30
2018-08-31T04:17:51.398Z,10.40
2018-08-31T04:20:19.712Z,10.40
2018-08-31T04:22:48.065Z,10.40
2018-08-31T04:25:16.377Z,10.20
2018-08-31T04:27:44.713Z,10.30
2018-08-31T04:30:13.033Z,10.20
2018-08-31T04:32:41.379Z,10.10
2018-08-31T04:35:09.685Z,10.20
2018-08-31T04:37:38.065Z,10.30
2018-08-31T04:40:06.911Z,10.40
2018-08-31T04:42:35.269Z,10.40
2018-08-31T04:45:03.597Z,10.50
2018-08-31T04:47:31.959Z,10.60
2018-08-31T04:50:00.268Z,10.70
2018-08-31T04:52:28.622Z,10.50
2018-08-31T04:54:56.937Z,10.50
2018-08-31T04:57:25.289Z,10.40
2018-08-31T04:59:53.617Z,10.50
2018-08-31T05:02:21.957Z,10.50
2018-08-31T05:04:50.277Z,10.40
2018-08-31T05:07:18.627Z,10.50
2018-08-31T05:09:46.957Z,10.50
2018-08-31T05:12:15.286Z,10.50
2018-08-31T05:14:43.670Z,10.50
2018-08-31T05:17:11.997Z,10.50
2018-08-31T05:19:40.328Z,10.50
2018-08-31T05:22:08.664Z,10.60
2018-08-31T05:24:37.012Z,10.70
2018-08-31T05:27:05.361Z,10.80
2018-08-31T05:29:33.760Z,10.90
2018-08-31T05:32:02.098Z,11.00
2018-08-31T05:34:30.470Z,11.00
2018-08-31T05:36:58.807Z,11.10
2018-08-31T05:39:27.146Z,11.10
2018-08-31T05:41:55.475Z,11.10
2018-08-31T05:44:23.809Z,11.00
2018-08-31T05:46:52.126Z,11.00
2018-08-31T05:49:20.458Z,11.00
2018-08-31T05:51:48.754Z,11.10
2018-08-31T05:54:17.093Z,11.00
2018-08-31T05:56:45.406Z,11.00
2018-08-31T05:59:13.737Z,11.00
2018-08-31T06:01:42.061Z,11.10
2018-08-31T06:04:10.509Z,11.20
2018-08-31T06:06:38.849Z,11.10
2018-08-31T06:09:08.607Z,11.10
2018-08-31T06:11:36.913Z,11.20
2018-08-31T06:14:05.495Z,11.40
2018-08-31T06:16:33.800Z,11.50
2018-08-31T06:19:02.210Z,11.50
2018-08-31T06:21:30.700Z,11.50
2018-08-31T06:23:59.065Z,11.50
2018-08-31T06:26:27.413Z,11.70
2018-08-31T06:28:55.753Z,11.80
2018-08-31T06:31:24.097Z,11.70
2018-08-31T06:33:52.474Z,11.70
2018-08-31T06:36:20.794Z,11.90
2018-08-31T06:38:49.102Z,12.10
2018-08-31T06:41:17.412Z,12.30
2018-08-31T06:43:45.730Z,12.40
2018-08-31T06:46:14.045Z,12.50
2018-08-31T06:48:42.357Z,12.60
2018-08-31T06:51:10.661Z,12.70
2018-08-31T06:53:38.973Z,12.60
2018-08-31T06:56:07.308Z,12.80
2018-08-31T06:58:35.605Z,12.80
2018-08-31T07:01:03.969Z,13.00
2018-08-31T07:03:32.286Z,13.10
2018-08-31T07:06:00.634Z,13.20
2018-08-31T07:08:28.956Z,13.30
2018-08-31T07:10:57.298Z,13.50
2018-08-31T07:13:25.749Z,13.50
2018-08-31T07:15:54.109Z,13.70
2018-08-31T07:18:22.558Z,13.90
2018-08-31T07:20:50.973Z,14.10
2018-08-31T07:23:19.314Z,14.20
2018-08-31T07:25:47.658Z,14.20
2018-08-31T07:28:16.025Z,14.20
2018-08-31T07:30:44.369Z,14.20
2018-08-31T07:33:12.722Z,14.30
2018-08-31T07:35:41.081Z,14.30
2018-08-31T07:38:09.414Z,14.20
2018-08-31T07:40:37.781Z,14.30
2018-08-31T07:43:06.110Z,14.30
2018-08-31T07:45:34.444Z,14.40
2018-08-31T07:48:02.756Z,14.60
2018-08-31T07:50:31.093Z,14.90
2018-08-31T07:52:59.406Z,15.10
2018-08-31T07:55:27.765Z,15.20
2018-08-31T07:57:56.082Z,15.40
2018-08-31T08:00:24.433Z,15.50
2018-08-31T08:02:52.757Z,15.30
2018-08-31T08:05:21.125Z,15.40
2018-08-31T08:07:49.454Z,15.40
2018-08-31T08:10:17.814Z,15.50
2018-08-31T08:12:46.178Z,15.70
2018-08-31T08:15:14.509Z,15.80
2018-08-31T08:17:42.854Z,15.90
2018-08-31T08:20:11.165Z,16.10
2018-08-31T08:22:39.546Z,16.20
2018-08-31T08:25:07.913Z,16.00
2018-08-31T08:27:36.305Z,16.00
2018-08-31T08:30:04.708Z,16.00
2018-08-31T08:32:33.048Z,16.00
2018-08-31T08:35:01.362Z,15.90
2018-08-31T08:37:29.696Z,15.90
2018-08-31T08:39:58.018Z,16.10
2018-08-31T08:42:26.417Z,16.30
2018-08-31T08:44:54.783Z,16.30
2018-08-31T08:47:23.149Z,16.30
2018-08-31T08:49:51.458Z,16.50
2018-08-31T08:52:19.802Z,16.70
2018-08-31T08:54:48.150Z,16.60
2018-08-31T08:57:16.496Z,16.70
2018-08-31T08:59:45.042Z,16.80
2018-08-31T09:02:13.391Z,16.80
2018-08-31T09:04:41.737Z,16.90
2018-08-31T09:07:12.032Z,16.90
2018-08-31T09:09:40.349Z,17.00
2018-08-31T09:12:08.682Z,17.10
2018-08-31T09:14:36.990Z,16.90
2018-08-31T09:17:05.330Z,16.90
2018-08-31T09:19:33.643Z,16.90
2018-08-31T09:22:02.014Z,17.00
2018-08-31T09:24:30.354Z,17.10
2018-08-31T09:26:58.693Z,17.20
2018-08-31T09:29:27.009Z,17.30
2018-08-31T09:31:55.353Z,17.40
2018-08-31T09:34:23.669Z,17.30
2018-08-31T09:36:51.994Z,17.30
2018-08-31T09:39:20.369Z,17.40
2018-08-31T09:41:48.682Z,17.60
2018-08-31T09:44:17.005Z,17.80
2018-08-31T09:46:45.329Z,18.00
2018-08-31T09:49:13.638Z,18.30
2018-08-31T09:51:41.950Z,18.60
2018-08-31T09:54:10.282Z,18.80
2018-08-31T09:56:38.584Z,18.80
2018-08-31T09:59:06.909Z,18.50
2018-08-31T10:01:36.235Z,18.50
2018-08-31T10:04:04.940Z,18.50
2018-08-31T10:06:34.117Z,18.60
2018-08-31T10:09:02.493Z,18.90
2018-08-31T10:11:30.829Z,18.90
2018-08-31T10:13:59.190Z,18.90
2018-08-31T10:16:27.510Z,19.10
2018-08-31T10:18:55.848Z,19.20
2018-08-31T10:21:24.177Z,19.20
2018-08-31T10:23:52.545Z,18.80
2018-08-31T10:26:20.877Z,18.50
2018-08-31T10:28:49.218Z,18.60
2018-08-31T10:31:17.538Z,18.80
2018-08-31T10:33:45.866Z,18.80
2018-08-31T10:36:14.290Z,19.00
2018-08-31T10:38:42.634Z,19.00
2018-08-31T10:41:10.964Z,19.40
2018-08-31T10:43:39.343Z,19.70
2018-08-31T10:46:07.683Z,19.50
2018-08-31T10:48:36.237Z,19.60
2018-08-31T10:51:04.581Z,19.80
2018-08-31T10:53:32.935Z,20.10
2018-08-31T10:56:01.253Z,20.10
2018-08-31T10:58:29.601Z,20.30
2018-08-31T11:00:57.946Z,20.60
2018-08-31T11:03:26.293Z,20.60
2018-08-31T11:05:54.611Z,20.60
2018-08-31T11:08:22.958Z,20.00
2018-08-31T11:10:51.294Z,19.60
2018-08-31T11:13:19.657Z,19.20
2018-08-31T11:15:47.990Z,19.20
2018-08-31T11:18:16.326Z,19.10
2018-08-31T11:20:44.664Z,19.50
2018-08-31T11:23:13.048Z,19.60
2018-08-31T11:25:41.401Z,19.20
2018-08-31T11:28:09.754Z,18.80
2018-08-31T11:30:38.065Z,18.70
2018-08-31T11:33:06.406Z,18.40
2018-08-31T11:35:34.717Z,18.40
2018-08-31T11:38:03.049Z,18.70
2018-08-31T11:40:31.381Z,18.80
2018-08-31T11:42:59.746Z,20.40
2018-08-31T11:45:28.088Z,21.70
2018-08-31T11:47:56.410Z,21.10
2018-08-31T11:50:24.756Z,20.60
2018-08-31T11:52:53.074Z,20.30
2018-08-31T11:55:21.481Z,20.20
2018-08-31T11:57:49.753Z,20.20
2018-08-31T12:00:18.101Z,20.30
2018-08-31T12:02:46.448Z,20.00
2018-08-31T12:05:14.800Z,19.60
2018-08-31T12:07:43.188Z,19.10
2018-08-31T12:10:11.540Z,18.60
2018-08-31T12:12:39.875Z,18.30
2018-08-31T12:15:08.257Z,18.20
2018-08-31T12:17:36.586Z,18.10
2018-08-31T12:20:05.051Z,18.00
2018-08-31T12:22:34.215Z,17.90
2018-08-31T12:25:02.652Z,18.00
2018-08-31T12:27:32.338Z,17.80
2018-08-31T12:30:00.887Z,17.90
2018-08-31T12:32:29.222Z,17.90
2018-08-31T12:34:57.550Z,18.20
2018-08-31T12:37:25.899Z,18.40
2018-08-31T12:39:54.266Z,18.70
2018-08-31T12:42:22.593Z,19.00
2018-08-31T12:44:50.989Z,19.30
2018-08-31T12:47:19.325Z,19.30
2018-08-31T12:49:47.652Z,19.60
2018-08-31T12:52:15.969Z,19.90
2018-08-31T12:54:44.294Z,20.20
2018-08-31T12:57:12.605Z,20.20
2018-08-31T12:59:45.241Z,20.20
2018-08-31T13:02:22.295Z,19.80
2018-08-31T13:04:52.628Z,19.60
2018-08-31T13:07:22.486Z,19.40
2018-08-31T13:09:52.559Z,19.50
2018-08-31T13:12:20.881Z,19.40
2018-08-31T13:14:49.926Z,19.20
2018-08-31T13:17:18.234Z,19.40
2018-08-31T13:19:46.570Z,19.40
2018-08-31T13:22:14.949Z,19.40
2018-08-31T13:24:45.516Z,19.30
2018-08-31T13:27:13.843Z,19.20
2018-08-31T13:29:42.805Z,18.90
2018-08-31T13:32:11.105Z,19.00
2018-08-31T13:34:39.469Z,18.90
2018-08-31T13:37:08.901Z,19.00
2018-08-31T13:39:37.239Z,18.90
2018-08-31T13:42:05.585Z,18.90
2018-08-31T13:44:33.913Z,19.10
2018-08-31T13:47:02.217Z,19.20
2018-08-31T13:49:30.546Z,19.70
2018-08-31T13:51:59.823Z,20.00
2018-08-31T13:54:28.127Z,20.20
2018-08-31T13:56:56.443Z,20.00
2018-08-31T13:59:24.801Z,19.80
2018-08-31T14:01:53.109Z,19.60
2018-08-31T14:04:21.406Z,19.40
2018-08-31T14:06:49.816Z,19.00
2018-08-31T14:09:18.125Z,19.00
2018-08-31T14:11:46.471Z,19.00
2018-08-31T14:14:14.777Z,19.10
2018-08-31T14:16:43.114Z,19.10
2018-08-31T14:19:11.434Z,19.20
2018-08-31T14:21:40.006Z,19.20
2018-08-31T14:24:08.694Z,19.20
2018-08-31T14:26:37.050Z,19.20
2018-08-31T14:29:05.378Z,19.30
2018-08-31T14:31:33.705Z,19.30
2018-08-31T14:34:02.017Z,19.10
2018-08-31T14:36:30.392Z,19.10
2018-08-31T14:38:58.657Z,19.10
2018-08-31T14:41:26.990Z,19.20
2018-08-31T14:43:55.313Z,19.30
2018-08-31T14:46:23.647Z,19.30
2018-08-31T14:48:51.965Z,19.50
2018-08-31T14:51:20.307Z,19.30
2018-08-31T14:53:48.625Z,19.20
2018-08-31T14:56:16.993Z,19.30
2018-08-31T14:58:45.358Z,19.20
2018-08-31T15:01:13.669Z,19.10
2018-08-31T15:03:41.990Z,19.10
2018-08-31T15:06:10.325Z,19.10
2018-08-31T15:08:38.643Z,19.20
2018-08-31T15:11:06.996Z,19.00
2018-08-31T15:13:35.315Z,19.10
2018-08-31T15:16:03.673Z,18.90
2018-08-31T15:18:31.987Z,19.00
2018-08-31T15:21:00.318Z,19.00
2018-08-31T15:23:28.801Z,19.10
2018-08-31T15:25:57.185Z,19.00
2018-08-31T15:28:25.581Z,19.20
2018-08-31T15:30:53.954Z,19.40
2018-08-31T15:33:23.908Z,19.40
2018-08-31T15:35:52.257Z,19.40
2018-08-31T15:38:20.586Z,19.50
2018-08-31T15:40:48.945Z,19.60
2018-08-31T15:43:17.286Z,19.60
2018-08-31T15:45:45.605Z,19.40
2018-08-31T15:48:13.929Z,19.40
2018-08-31T15:50:42.271Z,19.30
2018-08-31T15:53:10.864Z,19.10
2018-08-31T15:55:39.181Z,19.00
2018-08-31T15:58:07.538Z,19.00
2018-08-31T16:00:35.848Z,19.00
2018-08-31T16:03:04.185Z,19.00
2018-08-31T16:05:32.511Z,18.90
2018-08-31T16:08:00.882Z,18.90
2018-08-31T16:10:29.194Z,18.90
2018-08-31T16:12:57.545Z,18.90
2018-08-31T16:15:25.862Z,18.70
2018-08-31T16:17:54.198Z,18.70
2018-08-31T16:20:22.527Z,18.80
2018-08-31T16:22:50.882Z,18.70
2018-08-31T16:25:19.216Z,18.60
2018-08-31T16:27:47.586Z,18.80
2018-08-31T16:30:15.897Z,18.80
2018-08-31T16:32:44.242Z,18.90
2018-08-31T16:35:12.665Z,18.90
2018-08-31T16:37:41.017Z,19.00
2018-08-31T16:40:09.366Z,19.00
2018-08-31T16:42:37.721Z,19.10
2018-08-31T16:45:06.037Z,19.10
2018-08-31T16:47:34.390Z,19.10
2018-08-31T16:50:02.759Z,19.10
2018-08-31T16:52:32.326Z,19.10
2018-08-31T16:55:00.630Z,19.20
2018-08-31T16:57:28.941Z,19.10
2018-08-31T16:59:57.473Z,19.00
2018-08-31T17:02:25.832Z,18.90
2018-08-31T17:04:54.930Z,18.90
2018-08-31T17:07:23.254Z,18.90
2018-08-31T17:09:51.583Z,18.80
2018-08-31T17:12:19.894Z,18.80
2018-08-31T17:14:48.205Z,18.70
2018-08-31T17:17:16.524Z,18.70
2018-08-31T17:19:44.853Z,18.70
2018-08-31T17:22:13.267Z,18.70
2018-08-31T17:24:41.585Z,18.70
2018-08-31T17:27:15.260Z,18.50
2018-08-31T17:29:46.621Z,18.50
2018-08-31T17:32:20.669Z,18.40
2018-08-31T17:34:54.489Z,18.40
2018-08-31T17:37:28.242Z,18.30
2018-08-31T17:39:57.297Z,18.30
2018-08-31T17:42:26.853Z,18.10
2018-08-31T17:44:55.176Z,17.90
2018-08-31T17:47:23.511Z,17.80
2018-08-31T17:49:51.877Z,17.70
2018-08-31T17:52:20.266Z,17.60
2018-08-31T17:54:49.080Z,17.60
2018-08-31T17:57:17.433Z,17.50
2018-08-31T17:59:45.974Z,17.40
2018-08-31T18:02:14.297Z,17.30
2018-08-31T18:04:42.629Z,17.30
2018-08-31T18:07:10.991Z,17.20
2018-08-31T18:09:39.375Z,17.10
2018-08-31T18:12:07.721Z,17.20
2018-08-31T18:14:36.051Z,17.40
2018-08-31T18:17:04.385Z,17.50
2018-08-31T18:19:32.813Z,17.40
2018-08-31T18:25:00.154Z,17.50
2018-08-31T18:27:28.456Z,17.30
2018-08-31T18:29:56.820Z,17.10
2018-08-31T18:32:25.132Z,17.00
2018-08-31T18:34:53.457Z,17.00
2018-08-31T18:37:21.777Z,17.00
2018-08-31T18:39:50.149Z,16.80
2018-08-31T18:42:18.451Z,16.60
2018-08-31T18:44:46.752Z,16.50
2018-08-31T18:47:15.055Z,16.40
2018-08-31T18:49:43.448Z,16.20
2018-08-31T18:52:11.780Z,16.10
2018-08-31T18:54:40.090Z,15.90
2018-08-31T18:57:08.497Z,15.70
2018-08-31T18:59:36.829Z,15.50
2018-08-31T19:02:05.218Z,15.40
2018-08-31T19:04:33.520Z,15.20
2018-08-31T19:07:01.895Z,15.10
2018-08-31T19:09:30.177Z,15.00
2018-08-31T19:11:58.489Z,15.00
2018-08-31T19:14:26.828Z,14.90
2018-08-31T19:16:55.179Z,14.80
2018-08-31T19:19:23.517Z,14.70
2018-08-31T19:21:51.827Z,14.60
2018-08-31T19:24:20.156Z,14.60
2018-08-31T19:29:23.088Z,14.50
2018-08-31T19:31:51.381Z,14.30
2018-08-31T19:34:19.688Z,14.30
2018-08-31T19:36:48.013Z,14.30
2018-08-31T19:39:16.404Z,14.20
2018-08-31T19:41:44.698Z,14.10
2018-08-31T19:44:13.029Z,14.10
2018-08-31T19:46:41.387Z,14.00
2018-08-31T19:49:09.649Z,14.00
2018-08-31T19:51:38.005Z,14.00
2018-08-31T19:54:06.376Z,14.00
2018-08-31T19:56:34.649Z,13.90
2018-08-31T19:59:02.960Z,13.90
2018-08-31T20:01:31.277Z,13.90
2018-08-31T20:03:59.598Z,14.00
2018-08-31T20:06:27.967Z,13.90
2018-08-31T20:08:56.218Z,13.80
2018-08-31T20:11:24.529Z,13.70
2018-08-31T20:13:52.909Z,13.70
2018-08-31T20:16:21.263Z,13.70
2018-08-31T20:18:49.482Z,13.70
2018-08-31T20:21:17.797Z,13.80
2018-08-31T20:23:46.200Z,13.90
2018-08-31T20:26:21.589Z,13.90
2018-08-31T20:28:49.905Z,14.00
2018-08-31T20:31:18.271Z,14.10
2018-08-31T20:33:46.659Z,14.20
2018-08-31T20:36:19.186Z,14.20
2018-08-31T20:38:47.612Z,14.30
2018-08-31T20:41:15.885Z,14.30
2018-08-31T20:43:44.200Z,14.40
2018-08-31T20:46:12.543Z,14.50
2018-08-31T20:48:40.877Z,14.60
2018-08-31T20:51:09.227Z,14.70
2018-08-31T20:53:37.591Z,14.80
2018-08-31T20:56:05.917Z,14.90
2018-08-31T20:58:34.269Z,14.90
2018-08-31T21:01:02.661Z,14.90
2018-08-31T21:03:30.998Z,14.80
2018-08-31T21:05:59.554Z,14.60
2018-08-31T21:08:27.905Z,14.30
2018-08-31T21:10:56.261Z,13.90
2018-08-31T21:13:24.570Z,13.70
2018-08-31T21:15:52.974Z,13.50
2018-08-31T21:18:21.287Z,13.20
2018-08-31T21:20:49.634Z,13.10
2018-08-31T21:23:17.992Z,13.00
2018-08-31T21:25:46.381Z,13.00
2018-08-31T21:28:14.693Z,13.00
2018-08-31T21:30:43.021Z,13.10
2018-08-31T21:33:11.338Z,13.10
2018-08-31T21:35:39.693Z,13.00
2018-08-31T21:38:08.073Z,12.80
2018-08-31T21:40:36.419Z,12.70
2018-08-31T21:43:04.744Z,12.60
2018-08-31T21:45:33.086Z,12.60
2018-08-31T21:48:01.496Z,12.60
2018-08-31T21:50:29.859Z,12.50
2018-08-31T21:52:58.184Z,12.50
2018-08-31T21:55:26.599Z,12.40
2018-08-31T21:57:55.872Z,12.40
2018-08-31T22:00:24.215Z,12.40
2018-08-31T22:02:52.537Z,12.50
2018-08-31T22:05:20.861Z,12.60
2018-08-31T22:07:49.257Z,12.50
2018-08-31T22:10:17.556Z,12.30
2018-08-31T22:12:45.895Z,12.30
2018-08-31T22:15:26.050Z,12.20
2018-08-31T22:17:54.783Z,12.10
2018-08-31T22:20:23.362Z,12.00
2018-08-31T22:22:53.099Z,12.00
2018-08-31T22:25:21.837Z,12.00
2018-08-31T22:27:50.203Z,12.00
2018-08-31T22:30:18.625Z,12.00
2018-08-31T22:32:46.997Z,11.90
2018-08-31T22:35:15.318Z,11.80
2018-08-31T22:37:43.758Z,12.00
2018-08-31T22:40:12.093Z,11.90
2018-08-31T22:42:40.453Z,11.90
2018-08-31T22:45:13.076Z,11.80
2018-08-31T22:47:42.284Z,11.70
2018-08-31T22:50:10.964Z,11.70
2018-08-31T22:52:39.658Z,11.70
2018-08-31T22:55:08.097Z,11.60
2018-08-31T22:57:36.438Z,11.50
2018-08-31T23:00:05.045Z,11.50
2018-08-31T23:02:33.425Z,11.40
2018-08-31T23:05:01.773Z,11.30
2018-08-31T23:07:35.557Z,11.30
2018-08-31T23:10:03.937Z,11.30
2018-08-31T23:12:32.280Z,11.30
2018-08-31T23:15:00.621Z,11.20
2018-08-31T23:17:29.884Z,11.20
2018-08-31T23:19:59.065Z,11.20
2018-08-31T23:22:28.602Z,11.10
2018-08-31T23:24:58.621Z,11.10
2018-08-31T23:27:27.512Z,11.10
2018-08-31T23:29:56.060Z,11.00
2018-08-31T23:32:24.987Z,10.90
2018-08-31T23:34:53.632Z,10.80
2018-08-31T23:37:21.984Z,10.80
2018-08-31T23:39:50.361Z,10.70
2018-08-31T23:42:18.693Z,10.60
2018-08-31T23:44:46.999Z,10.60
2018-08-31T23:47:15.333Z,10.60
2018-08-31T23:49:43.713Z,10.60
2018-08-31T23:52:12.070Z,10.60
2018-08-31T23:54:40.396Z,10.70
2018-08-31T23:57:08.749Z,10.70
2018-08-31T23:59:37.045Z,10.70
